createdAt,value
2022-10-12T00:01:28.541Z,5.05
2022-10-12T00:03:56.361Z,5.10
2022-10-12T00:06:25.576Z,5.03
2022-10-12T00:08:55.760Z,5.50
2022-10-12T00:11:25.987Z,4.90
2022-10-12T00:13:54.380Z,5.10
2022-10-12T00:16:24.253Z,5.10
2022-10-12T00:18:53.484Z,4.90
2022-10-12T00:21:21.981Z,5.32
2022-10-12T00:23:50.437Z,4.68
2022-10-12T00:26:23.056Z,4.60
2022-10-12T00:28:56.454Z,4.45
2022-10-12T00:31:25.521Z,4.28
2022-10-12T00:33:53.402Z,4.70
2022-10-12T00:36:23.488Z,4.32
2022-10-12T00:38:53.857Z,3.85
2022-10-12T00:41:25.749Z,4.20
2022-10-12T00:43:58.168Z,3.78
2022-10-12T00:46:33.693Z,3.58
2022-10-12T00:49:11.225Z,3.72
2022-10-12T00:51:42.377Z,3.90
2022-10-12T00:54:15.384Z,3.33
2022-10-12T00:59:17.698Z,3.35
2022-10-12T01:01:45.494Z,3.45
2022-10-12T01:04:13.467Z,3.20
2022-10-12T01:06:42.141Z,3.30
2022-10-12T01:09:12.562Z,3.33
2022-10-12T01:11:40.467Z,3.35
2022-10-12T01:14:09.757Z,3.50
2022-10-12T01:16:44.021Z,3.30
2022-10-12T01:19:30.463Z,3.25
2022-10-12T01:22:04.447Z,3.00
2022-10-12T01:24:52.680Z,3.28
2022-10-12T01:27:38.139Z,3.67
2022-10-12T01:30:16.744Z,3.25
2022-10-12T01:33:04.195Z,4.40
2022-10-12T01:35:39.553Z,3.80
2022-10-12T01:38:18.866Z,3.75
2022-10-12T01:40:52.238Z,3.70
2022-10-12T01:43:23.394Z,3.55
2022-10-12T01:45:52.556Z,3.83
2022-10-12T01:48:20.482Z,3.50
2022-10-12T01:50:51.809Z,3.40
2022-10-12T01:53:31.816Z,3.60
2022-10-12T01:56:10.070Z,3.60
2022-10-12T01:58:51.862Z,3.60
2022-10-12T02:01:30.817Z,3.45
2022-10-12T02:04:08.673Z,3.22
2022-10-12T02:06:44.215Z,3.60
2022-10-12T02:09:20.232Z,3.53
2022-10-12T02:11:52.298Z,3.05
2022-10-12T02:14:23.967Z,3.20
2022-10-12T02:16:57.268Z,3.10
2022-10-12T02:19:29.812Z,3.38
2022-10-12T02:22:01.850Z,3.50
2022-10-12T02:24:31.458Z,2.97
2022-10-12T02:27:01.430Z,3.13
2022-10-12T02:29:32.662Z,3.75
2022-10-12T02:32:08.011Z,3.33
2022-10-12T02:34:39.423Z,3.55
2022-10-12T02:37:10.849Z,3.10
2022-10-12T02:39:48.832Z,3.10
2022-10-12T02:42:23.613Z,3.00
2022-10-12T02:44:54.975Z,2.95
2022-10-12T02:47:27.007Z,2.95
2022-10-12T02:49:56.372Z,3.30
2022-10-12T02:52:25.463Z,2.85
2022-10-12T02:54:53.356Z,2.97
2022-10-12T02:57:21.181Z,3.00
2022-10-12T02:59:49.037Z,3.05
2022-10-12T03:02:16.733Z,3.28
2022-10-12T03:04:46.069Z,3.20
2022-10-12T03:07:13.935Z,3.25
2022-10-12T03:09:41.725Z,3.30
2022-10-12T03:12:09.580Z,3.30
2022-10-12T03:14:37.563Z,3.60
2022-10-12T03:17:05.766Z,3.08
2022-10-12T03:19:33.720Z,2.92
2022-10-12T03:22:04.430Z,3.30
2022-10-12T03:24:32.169Z,3.17
2022-10-12T03:27:00.336Z,3.47
2022-10-12T03:29:28.124Z,3.60
2022-10-12T03:31:55.850Z,3.25
2022-10-12T03:34:23.724Z,3.17
2022-10-12T03:36:51.534Z,3.22
2022-10-12T03:39:23.227Z,2.88
2022-10-12T03:41:50.976Z,2.90
2022-10-12T03:44:18.734Z,3.00
2022-10-12T03:46:46.766Z,2.70
2022-10-12T03:49:14.516Z,2.83
2022-10-12T03:51:42.295Z,2.97
2022-10-12T03:54:10.328Z,3.40
2022-10-12T03:56:39.711Z,2.90
2022-10-12T03:59:07.896Z,2.80
2022-10-12T04:01:35.784Z,2.72
2022-10-12T04:04:03.684Z,2.92
2022-10-12T04:06:31.509Z,3.00
2022-10-12T04:08:59.241Z,2.95
2022-10-12T04:11:27.061Z,2.70
2022-10-12T04:13:56.174Z,2.70
2022-10-12T04:16:26.127Z,2.92
2022-10-12T04:18:56.666Z,3.13
2022-10-12T04:21:25.953Z,2.72
2022-10-12T04:23:53.688Z,3.17
2022-10-12T04:26:21.480Z,2.78
2022-10-12T04:28:49.284Z,3.35
2022-10-12T04:31:20.540Z,3.05
2022-10-12T04:33:48.323Z,3.60
2022-10-12T04:36:16.078Z,3.35
2022-10-12T04:38:43.823Z,2.85
2022-10-12T04:41:11.578Z,2.80
2022-10-12T04:43:39.434Z,2.70
2022-10-12T04:46:07.460Z,3.10
2022-10-12T04:48:36.670Z,3.13
2022-10-12T04:51:06.227Z,3.35
2022-10-12T04:53:34.023Z,3.20
2022-10-12T04:56:04.290Z,2.78
2022-10-12T04:58:32.474Z,3.25
2022-10-12T05:01:00.296Z,2.95
2022-10-12T05:03:28.105Z,2.88
2022-10-12T05:05:57.414Z,2.95
2022-10-12T05:08:25.594Z,3.33
2022-10-12T05:10:53.445Z,2.85
2022-10-12T05:13:21.351Z,3.53
2022-10-12T05:15:49.086Z,3.20
2022-10-12T05:18:17.302Z,3.22
2022-10-12T05:20:45.185Z,3.53
2022-10-12T05:23:14.375Z,3.10
2022-10-12T05:25:42.220Z,3.28
2022-10-12T05:28:10.733Z,3.55
2022-10-12T05:30:39.617Z,3.28
2022-10-12T05:33:07.442Z,3.20
2022-10-12T05:35:35.291Z,3.60
2022-10-12T05:38:03.112Z,3.40
2022-10-12T05:40:32.219Z,3.30
2022-10-12T05:43:00.028Z,3.60
2022-10-12T05:45:27.786Z,3.47
2022-10-12T05:47:55.870Z,3.63
2022-10-12T05:50:23.624Z,3.40
2022-10-12T05:52:51.492Z,3.70
2022-10-12T05:55:19.287Z,3.25
2022-10-12T05:57:51.925Z,3.40
2022-10-12T06:00:20.745Z,3.80
2022-10-12T06:02:48.999Z,3.58
2022-10-12T06:05:17.044Z,3.92
2022-10-12T06:07:44.779Z,3.88
2022-10-12T06:10:12.843Z,3.80
2022-10-12T06:12:40.982Z,4.10
2022-10-12T06:15:11.736Z,3.97
2022-10-12T06:17:39.594Z,3.60
2022-10-12T06:20:13.098Z,3.95
2022-10-12T06:22:41.513Z,4.00
2022-10-12T06:25:09.816Z,4.10
2022-10-12T06:27:37.610Z,3.92
2022-10-12T06:30:07.622Z,3.90
2022-10-12T06:32:37.352Z,3.90
2022-10-12T06:35:06.165Z,3.67
2022-10-12T06:37:50.565Z,4.03
2022-10-12T06:40:21.566Z,3.50
2022-10-12T06:42:52.720Z,4.07
2022-10-12T06:45:44.113Z,3.65
2022-10-12T06:48:18.839Z,3.80
2022-10-12T06:50:53.842Z,3.50
2022-10-12T06:53:25.426Z,3.70
2022-10-12T06:55:55.703Z,3.25
2022-10-12T06:58:24.329Z,3.53
2022-10-12T07:00:53.559Z,3.20
2022-10-12T07:03:22.950Z,3.40
2022-10-12T07:05:52.119Z,3.08
2022-10-12T07:08:19.966Z,3.83
2022-10-12T07:10:47.841Z,3.83
2022-10-12T07:13:15.682Z,4.20
2022-10-12T07:15:43.410Z,3.92
2022-10-12T07:18:15.912Z,3.80
2022-10-12T07:20:45.485Z,3.92
2022-10-12T07:23:16.136Z,3.92
2022-10-12T07:25:50.895Z,3.47
2022-10-12T07:28:19.328Z,3.90
2022-10-12T07:30:47.739Z,3.80
2022-10-12T07:33:15.602Z,4.10
2022-10-12T07:36:10.693Z,4.10
2022-10-12T07:38:33.182Z,3.53
2022-10-12T07:41:01.443Z,3.65
2022-10-12T07:43:29.894Z,3.35
2022-10-12T07:46:01.288Z,3.40
2022-10-12T07:48:29.341Z,3.25
2022-10-12T07:51:04.745Z,3.03
2022-10-12T07:53:51.553Z,3.30
2022-10-12T07:59:02.249Z,3.22
2022-10-12T08:01:32.225Z,2.95
2022-10-12T08:04:02.030Z,3.40
2022-10-12T08:06:38.835Z,2.97
2022-10-12T08:09:07.304Z,2.92
2022-10-12T08:11:40.087Z,2.97
2022-10-12T08:14:08.646Z,2.78
2022-10-12T08:16:36.394Z,3.00
2022-10-12T08:19:04.206Z,3.08
2022-10-12T08:21:33.301Z,2.80
2022-10-12T08:24:01.161Z,2.80
2022-10-12T08:26:29.262Z,2.38
2022-10-12T08:28:57.345Z,2.50
2022-10-12T08:31:25.189Z,2.70
2022-10-12T08:33:52.993Z,2.60
2022-10-12T08:36:20.966Z,2.28
2022-10-12T08:38:55.075Z,2.60
2022-10-12T08:41:38.235Z,2.33
2022-10-12T08:46:46.651Z,2.40
2022-10-12T08:49:20.049Z,2.42
2022-10-12T08:51:50.945Z,2.80
2022-10-12T08:54:21.967Z,2.20
2022-10-12T08:56:50.324Z,2.35
2022-10-12T08:59:19.826Z,2.83
2022-10-12T09:02:00.666Z,2.50
2022-10-12T09:04:40.464Z,2.33
2022-10-12T09:07:13.625Z,2.60
2022-10-12T09:09:57.859Z,2.40
2022-10-12T09:12:39.194Z,2.17
2022-10-12T09:15:15.461Z,2.83
2022-10-12T09:17:47.577Z,2.50
2022-10-12T09:20:20.563Z,2.80
2022-10-12T09:22:51.429Z,2.42
2022-10-12T09:25:25.251Z,2.50
2022-10-12T09:27:53.612Z,2.67
2022-10-12T09:30:22.125Z,2.63
2022-10-12T09:33:15.806Z,2.60
2022-10-12T09:35:46.002Z,2.58
2022-10-12T09:38:14.061Z,2.38
2022-10-12T09:40:43.731Z,2.40
2022-10-12T09:43:12.735Z,1.92
2022-10-12T09:45:40.692Z,2.28
2022-10-12T09:48:22.366Z,2.45
2022-10-12T09:50:53.416Z,2.40
2022-10-12T09:53:32.376Z,2.30
2022-10-12T09:56:09.779Z,2.05
2022-10-12T09:58:49.204Z,2.58
2022-10-12T10:01:24.257Z,2.10
2022-10-12T10:04:10.268Z,2.50
2022-10-12T10:06:39.616Z,2.40
2022-10-12T10:09:07.956Z,2.08
2022-10-12T10:11:37.266Z,2.40
2022-10-12T10:14:05.037Z,2.42
2022-10-12T10:16:32.910Z,2.70
2022-10-12T10:19:03.104Z,2.25
2022-10-12T10:21:34.255Z,2.40
2022-10-12T10:24:03.444Z,2.53
2022-10-12T10:26:51.380Z,2.78
2022-10-12T10:29:32.068Z,2.65
2022-10-12T10:32:26.814Z,2.22
2022-10-12T10:35:03.171Z,2.15
2022-10-12T10:37:32.081Z,2.80
2022-10-12T10:40:00.940Z,2.60
2022-10-12T10:42:32.111Z,2.67
2022-10-12T10:45:03.528Z,2.10
2022-10-12T10:47:33.810Z,2.35
2022-10-12T10:50:04.486Z,2.33
2022-10-12T10:52:34.595Z,2.28
2022-10-12T10:55:26.341Z,2.38
2022-10-12T10:58:00.767Z,2.95
2022-10-12T11:00:38.946Z,2.60
2022-10-12T11:03:15.657Z,2.40
2022-10-12T11:05:46.614Z,2.60
2022-10-12T11:08:20.634Z,2.50
2022-10-12T11:10:54.038Z,2.40
2022-10-12T11:13:26.633Z,2.28
2022-10-12T11:15:59.369Z,2.60
2022-10-12T11:18:34.912Z,2.40
2022-10-12T11:21:08.581Z,2.42
2022-10-12T11:23:43.598Z,2.50
2022-10-12T11:26:19.375Z,2.45
2022-10-12T11:28:47.446Z,2.10
2022-10-12T11:31:21.263Z,2.75
2022-10-12T11:33:51.059Z,2.58
2022-10-12T11:36:23.683Z,2.72
2022-10-12T11:38:54.997Z,2.85
2022-10-12T11:41:35.459Z,2.92
2022-10-12T11:44:07.784Z,2.50
2022-10-12T11:46:43.305Z,2.38
2022-10-12T11:49:19.410Z,2.55
2022-10-12T11:51:49.326Z,2.60
2022-10-12T11:54:26.992Z,2.78
2022-10-12T11:56:58.847Z,2.20
2022-10-12T11:59:35.206Z,2.40
2022-10-12T12:02:14.283Z,2.40
2022-10-12T12:04:45.483Z,2.50
2022-10-12T12:07:40.622Z,2.50
2022-10-12T12:10:42.187Z,2.30
2022-10-12T12:13:22.665Z,2.58
2022-10-12T12:16:30.706Z,2.85
2022-10-12T12:19:36.962Z,2.85
2022-10-12T12:22:32.968Z,2.25
2022-10-12T12:25:15.973Z,2.40
2022-10-12T12:27:46.292Z,2.80
2022-10-12T12:30:34.273Z,2.70
2022-10-12T12:33:04.184Z,2.92
2022-10-12T12:35:37.956Z,2.63
2022-10-12T12:38:28.180Z,3.17
2022-10-12T12:40:59.710Z,2.58
2022-10-12T12:43:53.747Z,2.95
2022-10-12T12:46:21.993Z,2.63
2022-10-12T12:49:03.956Z,3.13
2022-10-12T12:51:43.379Z,2.67
2022-10-12T12:54:22.213Z,2.80
2022-10-12T12:57:06.880Z,2.60
2022-10-12T13:00:05.205Z,2.55
2022-10-12T13:03:09.248Z,2.95
2022-10-12T13:06:13.870Z,2.38
2022-10-12T13:08:58.382Z,2.63
2022-10-12T13:11:55.683Z,2.38
2022-10-12T13:14:38.728Z,2.53
2022-10-12T13:17:35.387Z,2.22
2022-10-12T13:20:07.342Z,2.30
2022-10-12T13:22:36.418Z,2.30
2022-10-12T13:25:08.981Z,2.50
2022-10-12T13:27:44.180Z,2.20
2022-10-12T13:30:21.620Z,2.42
2022-10-12T13:32:56.888Z,2.10
2022-10-12T13:35:32.567Z,2.15
2022-10-12T13:38:02.599Z,2.75
2022-10-12T13:40:37.270Z,2.30
2022-10-12T13:43:30.991Z,2.83
2022-10-12T13:45:58.936Z,2.60
2022-10-12T13:48:46.866Z,2.25
2022-10-12T13:51:24.636Z,2.72
2022-10-12T13:53:52.719Z,2.60
2022-10-12T13:56:24.850Z,2.35
2022-10-12T13:58:57.263Z,2.38
2022-10-12T14:01:25.244Z,3.00
2022-10-12T14:03:53.254Z,2.95
2022-10-12T14:06:27.926Z,2.65
2022-10-12T14:08:58.257Z,2.72
2022-10-12T14:11:28.584Z,2.50
2022-10-12T14:13:58.185Z,2.58
2022-10-12T14:16:26.116Z,2.60
2022-10-12T14:18:54.035Z,2.63
2022-10-12T14:21:23.955Z,2.20
2022-10-12T14:23:54.492Z,2.42
2022-10-12T14:26:34.380Z,2.17
2022-10-12T14:29:42.668Z,3.00
2022-10-12T14:32:44.268Z,2.15
2022-10-12T14:35:15.612Z,2.25
2022-10-12T14:37:43.896Z,2.47
2022-10-12T14:40:31.267Z,2.20
2022-10-12T14:43:03.381Z,2.30
2022-10-12T14:45:32.400Z,2.55
2022-10-12T14:48:02.705Z,2.17
2022-10-12T14:50:32.295Z,2.45
2022-10-12T14:53:03.457Z,2.72
2022-10-12T14:55:34.885Z,2.60
2022-10-12T14:58:03.678Z,2.47
2022-10-12T15:00:33.439Z,2.15
2022-10-12T15:03:04.452Z,2.47
2022-10-12T15:05:33.764Z,2.58
2022-10-12T15:08:07.470Z,2.60
2022-10-12T15:10:36.432Z,2.70
2022-10-12T15:13:04.610Z,2.85
2022-10-12T15:15:37.408Z,2.75
2022-10-12T15:20:35.169Z,2.50
2022-10-12T15:23:06.889Z,2.45
2022-10-12T15:25:43.538Z,2.40
2022-10-12T15:28:11.739Z,2.55
2022-10-12T15:30:58.028Z,2.50
2022-10-12T15:33:29.495Z,3.10
2022-10-12T15:35:57.710Z,2.97
2022-10-12T15:38:25.600Z,2.88
2022-10-12T15:40:56.083Z,3.08
2022-10-12T15:43:23.969Z,2.72
2022-10-12T15:45:51.754Z,2.83
2022-10-12T15:48:19.939Z,3.20
2022-10-12T15:50:50.879Z,3.20
2022-10-12T15:53:22.312Z,3.00
2022-10-12T15:55:50.143Z,2.83
2022-10-12T15:58:18.049Z,2.92
2022-10-12T16:00:45.927Z,3.13
2022-10-12T16:03:21.426Z,3.13
2022-10-12T16:05:55.178Z,3.78
2022-10-12T16:08:23.112Z,3.70
2022-10-12T16:10:51.117Z,3.20
2022-10-12T16:13:18.966Z,3.15
2022-10-12T16:15:47.022Z,3.45
2022-10-12T16:18:16.784Z,3.80
2022-10-12T16:20:49.781Z,3.88
2022-10-12T16:23:26.052Z,3.35
2022-10-12T16:25:54.740Z,3.40
2022-10-12T16:28:23.777Z,3.67
2022-10-12T16:30:52.345Z,2.95
2022-10-12T16:33:20.573Z,3.05
2022-10-12T16:35:48.569Z,3.90
2022-10-12T16:38:16.385Z,3.17
2022-10-12T16:40:45.748Z,3.67
2022-10-12T16:43:13.543Z,3.72
2022-10-12T16:45:41.392Z,4.07
2022-10-12T16:48:09.377Z,3.78
2022-10-12T16:50:40.792Z,4.47
2022-10-12T16:53:09.285Z,3.83
2022-10-12T16:55:39.834Z,3.67
2022-10-12T16:58:09.021Z,4.05
2022-10-12T17:00:37.023Z,3.83
2022-10-12T17:03:04.939Z,4.30
2022-10-12T17:05:32.777Z,3.90
2022-10-12T17:08:00.693Z,3.97
2022-10-12T17:10:28.723Z,4.03
2022-10-12T17:12:56.591Z,4.15
2022-10-12T17:15:25.837Z,4.18
2022-10-12T17:17:54.088Z,4.65
2022-10-12T17:20:21.878Z,5.45
2022-10-12T17:22:49.992Z,7.78
2022-10-12T17:25:17.970Z,8.52
2022-10-12T17:27:48.839Z,8.10
2022-10-12T17:30:17.338Z,9.13
2022-10-12T17:32:46.516Z,10.23
2022-10-12T17:35:14.428Z,11.45
2022-10-12T17:37:42.449Z,11.95
2022-10-12T17:40:11.552Z,12.13
2022-10-12T17:42:39.601Z,11.77
2022-10-12T17:45:08.288Z,11.75
2022-10-12T17:47:36.174Z,14.50
2022-10-12T17:50:06.269Z,14.85
2022-10-12T17:52:39.388Z,13.52
2022-10-12T17:55:15.249Z,11.82
2022-10-12T17:57:52.420Z,12.00
2022-10-12T18:00:20.395Z,11.65
2022-10-12T18:02:48.293Z,10.77
2022-10-12T18:05:17.887Z,10.88
2022-10-12T18:07:45.937Z,9.73
2022-10-12T18:10:14.012Z,8.50
2022-10-12T18:12:41.868Z,6.88
2022-10-12T18:15:10.154Z,6.75
2022-10-12T18:17:38.593Z,6.43
2022-10-12T18:20:07.311Z,6.63
2022-10-12T18:22:36.479Z,6.00
2022-10-12T18:25:04.345Z,6.32
2022-10-12T18:27:32.141Z,7.60
2022-10-12T18:29:59.877Z,6.63
2022-10-12T18:32:28.828Z,7.03
2022-10-12T18:34:56.936Z,7.15
2022-10-12T18:37:24.804Z,7.10
2022-10-12T18:39:54.328Z,7.55
2022-10-12T18:42:22.177Z,7.35
2022-10-12T18:44:50.077Z,6.65
2022-10-12T18:47:20.921Z,7.57
2022-10-12T18:49:52.087Z,10.13
2022-10-12T18:52:20.873Z,12.32
2022-10-12T18:54:51.155Z,15.23
2022-10-12T18:57:20.340Z,13.45
2022-10-12T18:59:50.422Z,13.77
2022-10-12T19:02:20.657Z,14.02
2022-10-12T19:04:49.154Z,17.85
2022-10-12T19:07:17.434Z,38.17
2022-10-12T19:09:45.274Z,33.30
2022-10-12T19:12:16.743Z,25.35
2022-10-12T19:14:47.786Z,19.42
2022-10-12T19:17:16.085Z,16.42
2022-10-12T19:19:43.885Z,14.35
2022-10-12T19:22:11.850Z,13.63
2022-10-12T19:24:39.675Z,11.88
2022-10-12T19:27:07.824Z,12.52
2022-10-12T19:29:35.667Z,11.25
2022-10-12T19:32:04.868Z,10.10
2022-10-12T19:34:32.867Z,7.88
2022-10-12T19:37:00.929Z,6.85
2022-10-12T19:39:28.761Z,7.55
2022-10-12T19:41:56.609Z,7.03
2022-10-12T19:44:24.585Z,7.03
2022-10-12T19:46:53.605Z,6.63
2022-10-12T19:49:22.898Z,7.40
2022-10-12T19:51:50.756Z,8.00
2022-10-12T19:54:19.616Z,7.25
2022-10-12T19:56:47.472Z,8.27
2022-10-12T19:59:15.323Z,7.82
2022-10-12T20:01:47.801Z,7.82
2022-10-12T20:04:16.111Z,7.53
2022-10-12T20:06:45.548Z,7.40
2022-10-12T20:09:13.527Z,7.18
2022-10-12T20:11:41.430Z,7.63
2022-10-12T20:14:09.382Z,8.43
2022-10-12T20:16:37.891Z,8.45
2022-10-12T20:19:07.356Z,7.38
2022-10-12T20:21:37.298Z,6.97
2022-10-12T20:24:09.877Z,7.72
2022-10-12T20:26:37.846Z,7.20
2022-10-12T20:29:05.797Z,6.53
2022-10-12T20:31:34.957Z,6.20
2022-10-12T20:34:02.900Z,5.90
2022-10-12T20:36:33.000Z,5.28
2022-10-12T20:39:01.679Z,5.70
2022-10-12T20:41:30.814Z,5.88
2022-10-12T20:44:00.320Z,5.65
2022-10-12T20:46:28.923Z,5.45
2022-10-12T20:48:58.814Z,5.65
2022-10-12T20:51:29.563Z,5.40
2022-10-12T20:53:59.195Z,5.80
2022-10-12T20:56:27.230Z,5.50
2022-10-12T20:58:56.478Z,5.40
2022-10-12T21:01:25.829Z,5.43
2022-10-12T21:03:53.990Z,6.07
2022-10-12T21:06:23.353Z,5.90
2022-10-12T21:08:52.216Z,6.47
2022-10-12T21:11:20.052Z,6.25
2022-10-12T21:13:49.186Z,6.10
2022-10-12T21:16:18.388Z,5.80
2022-10-12T21:18:46.138Z,6.80
2022-10-12T21:21:16.166Z,6.57
2022-10-12T21:23:45.331Z,6.75
2022-10-12T21:26:15.048Z,6.68
2022-10-12T21:28:43.122Z,6.47
2022-10-12T21:31:11.759Z,7.05
2022-10-12T21:33:41.587Z,6.57
2022-10-12T21:36:11.380Z,6.10
2022-10-12T21:38:39.567Z,7.00
2022-10-12T21:41:08.377Z,6.47
2022-10-12T21:43:37.068Z,6.68
2022-10-12T21:46:05.694Z,6.15
2022-10-12T21:48:34.483Z,6.30
2022-10-12T21:51:04.645Z,6.68
2022-10-12T21:53:33.000Z,6.32
2022-10-12T21:56:05.567Z,5.85
2022-10-12T21:58:33.346Z,6.53
2022-10-12T22:01:05.769Z,6.03
2022-10-12T22:03:33.921Z,6.47
2022-10-12T22:06:03.259Z,6.70
2022-10-12T22:08:31.144Z,6.10
2022-10-12T22:11:04.881Z,6.85
2022-10-12T22:13:32.704Z,6.90
2022-10-12T22:16:05.466Z,6.65
2022-10-12T22:21:05.459Z,6.05
2022-10-12T22:23:34.835Z,6.20
2022-10-12T22:26:05.620Z,6.63
2022-10-12T22:28:33.897Z,6.72
2022-10-12T22:31:01.998Z,6.72
2022-10-12T22:33:29.786Z,6.53
2022-10-12T22:35:59.235Z,6.78
2022-10-12T22:38:29.507Z,6.70
2022-10-12T22:40:58.229Z,6.93
2022-10-12T22:43:26.808Z,7.05
2022-10-12T22:45:55.271Z,7.07
2022-10-12T22:48:23.959Z,6.72
2022-10-12T22:50:52.073Z,6.72
2022-10-12T22:53:21.601Z,6.80
2022-10-12T22:55:53.999Z,7.05
2022-10-12T22:58:21.794Z,6.82
2022-10-12T23:00:49.615Z,7.53
2022-10-12T23:03:17.506Z,7.18
2022-10-12T23:05:49.193Z,6.93
2022-10-12T23:08:17.176Z,7.13
2022-10-12T23:10:44.876Z,6.95
2022-10-12T23:13:14.151Z,7.07
2022-10-12T23:15:41.907Z,6.00
2022-10-12T23:18:09.862Z,6.22
2022-10-12T23:20:40.368Z,6.55
2022-10-12T23:23:08.209Z,6.25
2022-10-12T23:25:40.562Z,6.45
2022-10-12T23:28:09.410Z,6.63
2022-10-12T23:30:39.675Z,5.90
2022-10-12T23:33:07.580Z,6.63
2022-10-12T23:35:35.332Z,6.68
2022-10-12T23:38:03.175Z,6.35
2022-10-12T23:40:30.942Z,6.10
2022-10-12T23:42:58.726Z,6.45
2022-10-12T23:45:26.465Z,7.05
2022-10-12T23:47:55.926Z,6.72
2022-10-12T23:50:23.707Z,6.82
2022-10-12T23:52:51.463Z,7.13
2022-10-12T23:55:19.256Z,6.35
2022-10-12T23:57:47.649Z,6.45
